< Cyclone 198213 1982 Season Cyclone 198215 >
Cyclone 198214 (BERNIE)
General InformationTrack Information on Google MapsList of All Images || ResourceGoogle EarthGE AnimationAtom FeedGeoJSON
Detalied Best Track (Time Zone = UTC)
Year Month Day Hour Lat. Long. Pressure (hPa) Wind (kt) Class Image Chart
1982 4 1 02 -5.7 159.5 995 0 0 Image --
1982 4 1 06 -6.1 159.4 995 0 0 Image --
1982 4 1 12 -6.7 159.3 995 0 0 Image --
1982 4 1 18 -7.6 159.2 990 0 0 Image --
1982 4 2 00 -8.4 158.9 990 0 0 Image --
1982 4 2 06 -9.0 158.6 989 0 0 Image --
1982 4 2 12 -9.5 158.4 985 0 0 Image --
1982 4 2 18 -9.9 158.2 985 0 0 Image --
1982 4 3 00 -10.2 158.1 985 0 0 Image --
1982 4 3 06 -10.5 158.0 982 0 0 Image --
1982 4 3 12 -10.9 157.8 980 0 0 Image --
1982 4 3 18 -11.4 157.5 980 0 0 Image --
1982 4 4 00 -12.1 157.3 980 0 0 Image --
1982 4 4 06 -13.2 157.0 978 0 0 Image --
1982 4 4 12 -14.3 156.6 975 0 0 Image --
1982 4 4 18 -15.4 156.5 970 0 0 Image --
1982 4 5 00 -16.6 156.4 965 0 0 Image --
1982 4 5 06 -17.6 156.6 960 0 0 Image --
1982 4 5 12 -18.5 157.2 955 0 0 Image --
1982 4 5 18 -19.4 157.8 950 0 0 Image --
1982 4 6 00 -20.3 158.5 945 0 0 Image --
1982 4 6 06 -21.1 159.1 950 0 0 Image --
1982 4 6 12 -21.9 159.9 955 0 0 Image --
1982 4 6 18 -22.7 160.8 960 0 0 Image --
1982 4 7 00 -23.3 161.9 965 0 0 Image --
< Cyclone 198213 1982 Season Cyclone 198215 >

Help